LKCB weather

Cheb Airport
Cheb, Carlsbad Region, Czechia

Public forecast

Using degrees Celsius for public forecast. Weather courtesy of forecast.io.

METAR (pilot weather report)

Closest report is Karlovy Vary International Airport, 21.0 nm (39.0 km) ENE. Retrieved 2019/05/21 11:30 UTC (27 minutes ago):

LKKV 211130Z 10004KT 050V150 9999 SCT037 15/11 Q1005

TAF (pilot weather forecast)

Closest forecast is Karlovy Vary International Airport, 21.0 nm (39.0 km) ENE. Retrieved 2019/05/21 06:09 UTC (6 hours ago):

TAF TAF LKKV 210500Z 2106/2212 04003KT 8000 SCT005 BKN017 TEMPO 2106/2107 5000 BR BKN005 BECMG 2107/2109 9999 BKN020 TEMPO 2110/2122 5000 SHRA BKN014CB PROB30 TEMPO 2112/2117 2500 TSRA BKN009CB BECMG 2117/2119 28006KT TEMPO 2200/2212 30012KT 6000 SHRA SCT008TCU BKN013